Time;durP1;ratioP1;P1;durP2;ratioP2;P2;SDS_P1;SDS_P2;PMS_P1;PMS_P2;Temp;Humidity;BMP_temperature;BMP_pressure;BME280_temperature;BME280_humidity;BME280_pressure;Samples;Min_cycle;Max_cycle;Signal;HPM_P1;HPM_P2
2021/12/18 00:01:43;;;;;;;8.32;1.70;;;6.90;99.90;;;;;;5149514;27;20503;-70
2021/12/18 00:04:10;;;;;;;6.95;2.63;;;6.90;99.90;;;;;;5158659;27;20053;-71
2021/12/18 00:06:38;;;;;;;6.20;1.98;;;7.00;99.90;;;;;;5159237;27;20415;-71
2021/12/18 00:09:08;;;;;;;3.92;1.90;;;7.00;99.90;;;;;;5159203;27;20106;-70
2021/12/18 00:11:35;;;;;;;4.82;2.25;;;7.00;99.90;;;;;;5158522;27;20089;-70
2021/12/18 00:14:02;;;;;;;8.15;2.30;;;6.90;99.90;;;;;;5159044;27;20050;-70
2021/12/18 00:16:29;;;;;;;6.88;2.10;;;7.10;99.90;;;;;;5158803;27;20097;-70
2021/12/18 00:18:57;;;;;;;5.82;1.85;;;7.00;99.90;;;;;;5158371;27;20103;-70
2021/12/18 00:21:25;;;;;;;6.65;2.55;;;7.00;99.90;;;;;;5158670;27;20082;-71
2021/12/18 00:23:53;;;;;;;4.88;1.52;;;7.00;99.90;;;;;;5159046;27;20057;-70
2021/12/18 00:26:21;;;;;;;3.45;1.70;;;7.00;99.90;;;;;;5159094;27;20054;-71
2021/12/18 00:28:48;;;;;;;3.75;1.38;;;7.00;99.90;;;;;;5158443;27;20042;-71
2021/12/18 00:31:15;;;;;;;3.78;1.48;;;7.00;99.90;;;;;;5147252;27;20053;-71
2021/12/18 00:33:42;;;;;;;7.28;2.10;;;6.90;99.90;;;;;;5117312;27;20051;-71
2021/12/18 00:36:09;;;;;;;3.42;1.40;;;7.00;99.90;;;;;;5117095;27;20051;-72
2021/12/18 00:38:35;;;;;;;11.90;2.10;;;6.90;99.90;;;;;;5116454;27;20058;-71
2021/12/18 00:41:26;;;;;;;9.38;1.67;;;6.90;99.90;;;;;;5116851;27;20047;-71
2021/12/18 00:44:03;;;;;;;;;;;6.90;99.90;;;;;;5117176;27;20047;-71
2021/12/18 00:46:32;;;;;;;13.68;2.40;;;6.90;99.90;;;;;;5133720;27;19919;-71
2021/12/18 00:48:59;;;;;;;13.48;2.08;;;6.80;99.90;;;;;;5116694;27;20043;-71
2021/12/18 00:51:26;;;;;;;6.38;1.90;;;6.80;99.90;;;;;;5117106;27;20043;-72
2021/12/18 00:53:53;;;;;;;5.93;1.80;;;6.80;99.90;;;;;;5116343;27;20059;-72
2021/12/18 00:56:22;;;;;;;13.27;2.85;;;6.80;99.90;;;;;;5116734;27;20092;-72
2021/12/18 00:58:50;;;;;;;8.57;1.88;;;6.80;99.90;;;;;;5116496;27;20055;-72
2021/12/18 01:01:18;;;;;;;13.20;2.67;;;6.80;99.90;;;;;;5135888;27;20053;-72
2021/12/18 01:03:46;;;;;;;13.98;2.40;;;6.80;99.90;;;;;;5157876;27;20086;-71
2021/12/18 01:06:13;;;;;;;8.13;2.40;;;6.70;99.90;;;;;;5157018;27;20539;-72
2021/12/18 01:08:40;;;;;;;12.73;2.15;;;6.80;99.90;;;;;;5157847;27;20106;-72
2021/12/18 01:11:27;;;;;;;9.70;2.35;;;6.80;99.90;;;;;;5157857;27;20046;-71
2021/12/18 01:14:11;;;;;;;6.20;2.60;;;6.80;99.90;;;;;;5157253;27;20054;-72
2021/12/18 01:16:46;;;;;;;5.80;2.25;;;6.80;99.90;;;;;;5157807;27;20088;-70
2021/12/18 01:24:44;;;;;;;15.52;2.13;;;6.70;99.90;;;;;;5157032;27;20494;-70
2021/12/18 01:27:11;;;;;;;6.97;1.77;;;6.80;99.90;;;;;;5176610;27;20425;-70
2021/12/18 01:29:39;;;;;;;4.30;1.38;;;6.70;99.90;;;;;;5156916;27;20046;-71
2021/12/18 01:32:07;;;;;;;3.92;1.60;;;6.80;99.90;;;;;;5154280;27;20053;-71
2021/12/18 01:34:34;;;;;;;3.42;1.50;;;6.70;99.90;;;;;;5156661;27;20099;-70
2021/12/18 01:37:01;;;;;;;3.53;1.40;;;6.70;99.90;;;;;;5157222;27;20562;-70
2021/12/18 01:39:28;;;;;;;6.78;1.73;;;6.70;99.90;;;;;;5175562;27;20042;-71
2021/12/18 01:42:13;;;;;;;3.45;1.42;;;6.70;99.90;;;;;;5156873;27;20050;-70
2021/12/18 01:45:00;;;;;;;5.30;1.80;;;6.70;99.90;;;;;;5157127;27;20056;-71
2021/12/18 01:52:57;;;;;;;4.95;1.52;;;6.70;99.90;;;;;;5136190;27;20138;-70
2021/12/18 01:55:28;;;;;;;6.13;1.42;;;6.70;99.90;;;;;;5135682;27;20103;-71
2021/12/18 01:57:54;;;;;;;;;;;6.70;99.90;;;;;;5153612;27;20102;-70
2021/12/18 02:00:25;;;;;;;5.30;1.60;;;6.70;99.90;;;;;;5140104;27;20382;-71
2021/12/18 02:02:52;;;;;;;5.00;2.05;;;6.70;99.90;;;;;;5175333;27;20050;-71
2021/12/18 02:05:19;;;;;;;7.13;2.67;;;6.70;99.90;;;;;;5157512;27;20090;-71
2021/12/18 02:07:46;;;;;;;5.57;2.53;;;6.70;99.90;;;;;;5156585;27;20042;-71
2021/12/18 02:10:18;;;;;;;5.15;2.33;;;6.80;99.90;;;;;;5156648;27;20221;-71
2021/12/18 02:12:52;;;;;;;5.88;2.65;;;6.80;99.90;;;;;;5175624;27;20045;-71
2021/12/18 02:20:55;;;;;;;6.25;2.13;;;6.80;99.90;;;;;;5157110;27;20050;-71
2021/12/18 02:23:22;;;;;;;4.00;1.90;;;6.70;99.90;;;;;;5156716;27;20099;-71
2021/12/18 02:25:49;;;;;;;6.35;2.33;;;6.80;99.90;;;;;;5156241;27;20086;-70
2021/12/18 02:28:21;;;;;;;5.30;1.85;;;6.70;99.90;;;;;;5156337;27;20106;-70
2021/12/18 02:30:50;;;;;;;4.03;1.85;;;6.70;99.90;;;;;;5155835;27;20038;-70
2021/12/18 02:33:17;;;;;;;3.47;1.67;;;6.80;99.90;;;;;;5157021;27;20486;-68
2021/12/18 02:35:48;;;;;;;5.50;1.90;;;6.80;99.90;;;;;;5157102;27;20054;-70
2021/12/18 02:38:20;;;;;;;5.30;2.40;;;6.70;99.90;;;;;;5156162;27;20057;-70
2021/12/18 02:40:58;;;;;;;4.28;2.13;;;6.70;99.90;;;;;;5157256;27;20081;-70
2021/12/18 02:43:25;;;;;;;5.00;2.08;;;6.70;99.90;;;;;;5158186;27;20046;-70
2021/12/18 02:45:55;;;;;;;4.68;2.00;;;6.70;99.90;;;;;;5157289;27;20081;-72
2021/12/18 02:48:22;;;;;;;2.90;1.52;;;6.70;99.90;;;;;;5156633;27;20102;-71
2021/12/18 02:50:50;;;;;;;5.72;2.00;;;6.70;99.90;;;;;;5156527;27;20077;-71
2021/12/18 02:53:18;;;;;;;8.23;2.13;;;6.70;99.90;;;;;;5159757;27;20046;-71
2021/12/18 02:55:45;;;;;;;6.70;2.15;;;6.70;99.90;;;;;;5160694;27;20085;-71
2021/12/18 02:58:12;;;;;;;3.22;1.63;;;6.70;99.90;;;;;;5156608;27;20498;-71
2021/12/18 03:00:39;;;;;;;2.38;1.10;;;6.70;99.90;;;;;;5144144;27;20047;-71
2021/12/18 03:03:09;;;;;;;4.40;0.95;;;6.70;99.90;;;;;;5133185;27;20119;-71
2021/12/18 03:05:44;;;;;;;2.95;1.27;;;6.70;99.90;;;;;;5156922;27;20055;-70
2021/12/18 03:08:17;;;;;;;4.78;1.60;;;6.70;99.90;;;;;;5157243;27;20050;-71
2021/12/18 03:19:17;;;;;;;5.97;1.40;;;6.70;99.90;;;;;;5157663;27;20042;-70
2021/12/18 03:22:29;;;;;;;6.32;1.58;;;6.70;99.90;;;;;;5134975;27;20051;-70
2021/12/18 03:24:55;;;;;;;3.65;1.35;;;6.70;99.90;;;;;;5115410;28;20047;-70
2021/12/18 03:27:24;;;;;;;6.10;0.90;;;6.80;99.90;;;;;;5115048;28;20055;-70
2021/12/18 03:29:50;;;;;;;10.00;1.48;;;6.70;99.90;;;;;;5118437;27;20052;-70
2021/12/18 03:32:18;;;;;;;3.67;1.00;;;6.80;99.90;;;;;;5156405;27;20054;-72
2021/12/18 03:34:45;;;;;;;2.53;0.98;;;6.70;99.90;;;;;;5155566;27;20051;-71
2021/12/18 03:37:12;;;;;;;8.15;1.17;;;6.70;99.90;;;;;;5156739;27;20054;-71
2021/12/18 03:39:39;;;;;;;4.45;1.17;;;6.70;99.90;;;;;;5156383;27;20098;-71
2021/12/18 03:42:07;;;;;;;11.70;1.70;;;6.70;99.90;;;;;;5156156;27;20150;-72
2021/12/18 03:44:36;;;;;;;7.82;1.33;;;6.70;99.90;;;;;;5156314;27;20392;-71
2021/12/18 03:47:03;;;;;;;10.30;1.55;;;6.70;99.90;;;;;;5156696;27;20062;-71
2021/12/18 03:49:30;;;;;;;5.82;1.52;;;6.70;99.90;;;;;;5140325;27;20100;-71
2021/12/18 03:51:57;;;;;;;5.65;1.75;;;6.80;99.90;;;;;;5135947;27;20055;-71
2021/12/18 03:54:24;;;;;;;3.15;1.60;;;6.70;99.90;;;;;;5134769;27;20047;-71
2021/12/18 03:56:51;;;;;;;3.25;1.40;;;6.80;99.90;;;;;;5134730;27;20108;-71
2021/12/18 03:59:18;;;;;;;3.00;1.40;;;6.80;99.90;;;;;;5134969;27;20055;-71
2021/12/18 04:01:46;;;;;;;5.45;1.85;;;6.90;99.90;;;;;;5152346;27;20042;-71
2021/12/18 04:04:14;;;;;;;5.38;2.10;;;6.80;99.90;;;;;;5153895;27;20095;-71
2021/12/18 04:06:42;;;;;;;4.03;1.83;;;7.40;99.90;;;;;;5155574;27;20050;-71
2021/12/18 04:09:11;;;;;;;4.35;1.83;;;6.80;99.90;;;;;;5155110;27;20050;-71
2021/12/18 04:11:38;;;;;;;7.38;2.28;;;6.90;99.90;;;;;;5155637;27;20137;-70
2021/12/18 04:14:05;;;;;;;4.78;1.88;;;6.90;99.90;;;;;;5155532;27;20058;-70
2021/12/18 04:16:32;;;;;;;3.75;1.83;;;6.90;99.90;;;;;;5155043;27;20103;-70
2021/12/18 04:19:01;;;;;;;3.08;1.80;;;6.90;99.90;;;;;;5156756;27;20046;-70
2021/12/18 04:21:28;;;;;;;4.00;1.77;;;6.90;99.90;;;;;;5155373;27;20051;-68
2021/12/18 04:23:55;;;;;;;4.00;2.00;;;6.90;99.90;;;;;;5155037;27;20092;-69
2021/12/18 04:26:22;;;;;;;4.28;2.17;;;6.90;99.90;;;;;;5156122;27;20185;-70
2021/12/18 04:28:49;;;;;;;8.27;2.80;;;6.90;99.90;;;;;;5155307;27;20432;-71
2021/12/18 04:31:16;;;;;;;6.03;2.42;;;6.90;99.90;;;;;;5137261;27;20476;-70
2021/12/18 04:33:43;;;;;;;4.20;2.00;;;7.00;99.90;;;;;;5113714;28;20085;-71
2021/12/18 04:36:11;;;;;;;6.28;2.75;;;7.00;99.90;;;;;;5114054;28;20544;-71
2021/12/18 04:38:38;;;;;;;5.47;2.50;;;7.00;99.90;;;;;;5112846;28;20492;-71
2021/12/18 04:41:06;;;;;;;6.50;2.78;;;7.00;99.90;;;;;;5113605;28;20100;-71
2021/12/18 04:43:33;;;;;;;4.05;1.92;;;7.00;99.90;;;;;;5130408;27;20259;-71
2021/12/18 04:46:00;;;;;;;4.13;2.13;;;7.00;99.90;;;;;;5133873;27;20055;-71
2021/12/18 04:48:27;;;;;;;6.43;2.47;;;7.10;99.90;;;;;;5133942;27;20499;-71
2021/12/18 04:50:53;;;;;;;4.93;2.53;;;7.10;99.90;;;;;;5133715;27;20051;-71
2021/12/18 04:53:22;;;;;;;4.75;2.22;;;7.10;99.90;;;;;;5131076;27;20104;-71
2021/12/18 04:55:49;;;;;;;6.18;2.78;;;7.10;99.90;;;;;;5113810;28;20113;-71
2021/12/18 04:58:16;;;;;;;4.25;2.30;;;7.10;99.90;;;;;;5112820;28;20120;-70
2021/12/18 05:00:47;;;;;;;8.68;3.58;;;7.20;99.90;;;;;;5113641;28;20116;-70
2021/12/18 05:03:16;;;;;;;6.03;2.88;;;7.20;99.90;;;;;;5112967;28;20568;-69
2021/12/18 05:05:43;;;;;;;4.63;2.25;;;7.20;99.90;;;;;;5112699;28;20164;-70
2021/12/18 05:08:10;;;;;;;10.35;4.63;;;7.20;99.90;;;;;;5113517;28;20051;-70
2021/12/18 05:10:38;;;;;;;8.30;4.47;;;7.30;99.90;;;;;;5112844;28;20043;-71
2021/12/18 05:13:05;;;;;;;8.18;4.35;;;7.30;99.90;;;;;;5112638;28;20047;-71
2021/12/18 05:15:32;;;;;;;7.60;4.00;;;7.30;99.90;;;;;;5112060;28;20055;-70
2021/12/18 05:17:59;;;;;;;8.55;4.38;;;7.30;99.90;;;;;;5112954;28;20108;-71
2021/12/18 05:20:26;;;;;;;7.03;3.35;;;7.40;99.90;;;;;;5113573;28;20055;-71
2021/12/18 05:22:53;;;;;;;7.45;3.72;;;7.40;99.90;;;;;;5120473;27;20047;-71
2021/12/18 05:25:20;;;;;;;8.65;3.90;;;7.40;99.90;;;;;;5155207;27;20042;-69
2021/12/18 05:27:48;;;;;;;9.63;4.30;;;7.50;99.90;;;;;;5154949;27;20154;-71
2021/12/18 05:30:15;;;;;;;7.80;3.55;;;7.50;99.90;;;;;;5154425;27;20043;-71
2021/12/18 05:32:42;;;;;;;12.10;3.70;;;7.50;99.90;;;;;;5154858;27;20119;-71
2021/12/18 05:35:09;;;;;;;6.75;3.55;;;7.50;99.90;;;;;;5153597;27;20055;-71
2021/12/18 05:37:50;;;;;;;9.43;4.13;;;7.50;99.90;;;;;;5155311;27;20486;-71
2021/12/18 05:40:19;;;;;;;8.77;3.92;;;7.70;99.90;;;;;;5154805;27;20039;-72
2021/12/18 05:42:46;;;;;;;6.93;4.25;;;7.60;99.90;;;;;;5155074;27;20424;-72
2021/12/18 05:45:15;;;;;;;7.40;3.90;;;7.60;99.90;;;;;;5156289;27;20110;-71
2021/12/18 05:47:43;;;;;;;15.07;4.68;;;7.70;99.90;;;;;;5153745;27;20050;-70
2021/12/18 05:50:11;;;;;;;9.85;4.07;;;7.70;99.90;;;;;;5154578;27;20120;-71
2021/12/18 05:52:39;;;;;;;13.75;5.35;;;7.70;99.90;;;;;;5152007;27;20057;-70
2021/12/18 05:55:07;;;;;;;9.85;4.65;;;7.70;99.90;;;;;;5132972;27;20051;-70
2021/12/18 05:57:33;;;;;;;13.88;5.43;;;7.70;99.90;;;;;;5132841;27;20108;-69
2021/12/18 06:00:00;;;;;;;11.05;5.47;;;7.80;99.90;;;;;;5132958;27;20115;-70
2021/12/18 06:02:29;;;;;;;13.32;6.20;;;7.70;99.90;;;;;;5136434;27;20531;-70
2021/12/18 06:04:55;;;;;;;13.32;7.25;;;7.80;99.90;;;;;;5153482;27;20550;-71
2021/12/18 06:07:30;;;;;;;10.80;5.63;;;7.80;99.90;;;;;;5153352;27;20527;-71
2021/12/18 06:09:58;;;;;;;13.75;5.97;;;7.80;99.90;;;;;;5152891;27;20046;-71
2021/12/18 06:12:25;;;;;;;13.35;7.15;;;7.80;99.90;;;;;;5153672;27;20490;-71
2021/12/18 06:14:52;;;;;;;11.20;7.50;;;7.80;99.90;;;;;;5153223;27;20494;-71
2021/12/18 06:17:19;;;;;;;10.65;5.93;;;7.80;99.90;;;;;;5153033;27;20050;-71
2021/12/18 06:19:47;;;;;;;10.48;5.25;;;7.80;99.90;;;;;;5154151;27;20058;-71
2021/12/18 06:22:14;;;;;;;8.43;4.25;;;7.80;99.90;;;;;;5140109;27;20063;-71
2021/12/18 06:24:41;;;;;;;11.93;4.20;;;7.80;99.90;;;;;;5128088;27;20568;-70
2021/12/18 06:27:08;;;;;;;8.70;3.42;;;7.90;99.90;;;;;;5115975;28;20048;-70
2021/12/18 06:29:38;;;;;;;8.32;3.20;;;7.90;99.90;;;;;;5117429;28;20108;-70
2021/12/18 06:32:06;;;;;;;8.88;3.50;;;7.80;99.90;;;;;;5115971;28;20480;-71
2021/12/18 06:34:32;;;;;;;8.10;3.30;;;7.90;99.90;;;;;;5116402;28;20073;-71
2021/12/18 06:37:01;;;;;;;10.15;3.40;;;7.90;99.90;;;;;;5115802;28;20056;-71
2021/12/18 06:39:27;;;;;;;5.30;2.80;;;7.90;99.90;;;;;;5116363;28;20044;-70
2021/12/18 06:41:54;;;;;;;6.18;2.97;;;7.90;99.90;;;;;;5133934;27;20099;-71
2021/12/18 06:44:21;;;;;;;6.85;3.25;;;7.90;99.90;;;;;;5156380;27;20130;-71
2021/12/18 06:46:48;;;;;;;8.88;3.53;;;7.90;99.90;;;;;;5158334;27;20042;-71
2021/12/18 06:49:15;;;;;;;7.55;3.35;;;8.00;99.90;;;;;;5157180;27;20050;-71
2021/12/18 06:51:42;;;;;;;4.30;2.53;;;8.00;99.90;;;;;;5156306;27;20555;-70
2021/12/18 06:54:10;;;;;;;9.40;2.40;;;8.00;99.90;;;;;;5138193;27;20055;-72
2021/12/18 06:56:37;;;;;;;8.38;3.47;;;8.10;99.90;;;;;;5121578;27;20179;-71
2021/12/18 06:59:04;;;;;;;10.07;3.00;;;8.10;99.90;;;;;;5122755;27;20051;-71
2021/12/18 07:01:31;;;;;;;8.82;2.75;;;8.10;99.90;;;;;;5134190;27;20039;-70
2021/12/18 07:03:58;;;;;;;8.38;2.53;;;8.10;99.90;;;;;;5134107;27;20533;-70
2021/12/18 07:06:24;;;;;;;4.90;2.42;;;8.10;99.90;;;;;;5125247;27;20479;-71
2021/12/18 07:08:51;;;;;;;10.32;3.25;;;8.10;99.90;;;;;;5127742;27;20500;-72
2021/12/18 07:11:19;;;;;;;6.30;2.33;;;8.10;99.90;;;;;;5128229;27;20055;-71
2021/12/18 07:13:46;;;;;;;7.43;2.40;;;8.10;99.90;;;;;;5131013;27;20043;-72
2021/12/18 07:16:13;;;;;;;9.57;2.50;;;8.10;99.90;;;;;;5130232;27;20051;-71
2021/12/18 07:18:40;;;;;;;6.22;2.38;;;8.10;99.90;;;;;;5131589;27;20051;-70
2021/12/18 07:21:07;;;;;;;8.80;2.90;;;8.10;99.90;;;;;;5131508;27;20039;-71
2021/12/18 07:23:33;;;;;;;7.68;2.97;;;8.10;99.90;;;;;;5132922;27;20495;-72
2021/12/18 07:26:00;;;;;;;14.43;3.00;;;8.10;99.90;;;;;;5129531;27;20207;-69
2021/12/18 07:28:28;;;;;;;7.07;3.00;;;8.10;99.90;;;;;;5132681;27;20047;-70
2021/12/18 07:30:55;;;;;;;6.90;2.80;;;8.10;99.90;;;;;;5128379;27;20066;-70
2021/12/18 07:33:22;;;;;;;9.88;2.60;;;8.10;99.90;;;;;;5128278;27;20092;-70
2021/12/18 07:35:50;;;;;;;7.30;2.75;;;8.10;99.90;;;;;;5130274;27;20437;-70
2021/12/18 07:38:17;;;;;;;11.27;3.15;;;8.20;99.90;;;;;;5129925;27;20062;-70
2021/12/18 07:40:44;;;;;;;7.88;3.17;;;8.20;99.90;;;;;;5126739;27;20047;-70
2021/12/18 07:43:11;;;;;;;10.32;2.85;;;8.20;99.90;;;;;;5132293;27;20051;-70
2021/12/18 07:45:39;;;;;;;6.63;3.42;;;8.20;99.90;;;;;;5128450;27;20100;-71
2021/12/18 07:48:06;;;;;;;9.40;3.20;;;8.20;99.90;;;;;;5125693;27;20043;-71
2021/12/18 07:50:34;;;;;;;7.22;2.70;;;8.20;99.90;;;;;;5127153;27;20059;-70
2021/12/18 07:53:00;;;;;;;8.43;2.67;;;8.20;99.90;;;;;;5127698;27;20119;-71
2021/12/18 07:55:29;;;;;;;5.95;3.13;;;8.20;99.90;;;;;;5129698;27;20043;-71
2021/12/18 07:57:56;;;;;;;8.52;2.78;;;8.30;99.90;;;;;;5129506;27;20103;-70
2021/12/18 08:00:23;;;;;;;5.20;2.67;;;8.30;99.90;;;;;;5111291;27;20132;-69
2021/12/18 08:02:52;;;;;;;6.68;2.55;;;8.30;99.90;;;;;;5116802;27;20135;-71
2021/12/18 08:05:19;;;;;;;7.22;2.97;;;8.30;99.90;;;;;;5114972;27;20043;-71
2021/12/18 08:07:45;;;;;;;6.85;2.38;;;8.30;99.90;;;;;;5107568;27;20488;-72
2021/12/18 08:10:13;;;;;;;10.60;2.90;;;8.30;99.90;;;;;;5112515;27;20097;-70
2021/12/18 08:12:39;;;;;;;12.27;2.88;;;8.30;99.90;;;;;;5116928;27;20439;-70
2021/12/18 08:15:07;;;;;;;11.68;2.85;;;8.30;99.90;;;;;;5115265;27;20039;-71
2021/12/18 08:17:35;;;;;;;4.70;1.85;;;8.30;99.90;;;;;;5115480;27;20454;-69
2021/12/18 08:20:03;;;;;;;7.22;2.40;;;8.30;99.90;;;;;;5111452;27;20059;-71
2021/12/18 08:22:30;;;;;;;8.93;2.40;;;8.40;99.90;;;;;;5113101;27;20028;-70
2021/12/18 08:24:57;;;;;;;6.28;2.13;;;8.40;99.90;;;;;;5110596;27;20079;-70
2021/12/18 08:27:24;;;;;;;8.20;2.63;;;8.40;99.90;;;;;;5103338;28;20158;-72
2021/12/18 08:29:51;;;;;;;4.95;2.47;;;8.40;99.90;;;;;;5103515;28;20144;-72
2021/12/18 08:32:18;;;;;;;6.13;1.90;;;8.40;99.90;;;;;;5104188;28;20099;-72
2021/12/18 08:34:45;;;;;;;4.90;2.10;;;7.70;99.90;;;;;;5101963;28;20108;-72
2021/12/18 08:37:13;;;;;;;5.05;2.45;;;8.40;99.90;;;;;;5096476;28;20108;-72
2021/12/18 08:39:40;;;;;;;5.63;2.15;;;8.40;99.90;;;;;;5099043;28;20418;-72
2021/12/18 08:42:08;;;;;;;8.55;2.20;;;8.50;99.90;;;;;;5092139;28;20043;-72
2021/12/18 08:44:35;;;;;;;9.88;2.40;;;8.50;99.90;;;;;;5106871;28;20073;-71
2021/12/18 08:47:03;;;;;;;8.35;2.03;;;8.50;99.90;;;;;;5114732;28;20560;-71
2021/12/18 08:49:30;;;;;;;7.95;2.33;;;8.50;99.90;;;;;;5109097;28;20129;-71
2021/12/18 08:51:57;;;;;;;6.55;2.58;;;8.50;99.90;;;;;;5114812;28;20044;-72
2021/12/18 08:54:25;;;;;;;5.03;1.90;;;8.50;99.90;;;;;;5096713;28;20060;-72
2021/12/18 08:56:52;;;;;;;9.60;2.42;;;8.60;99.90;;;;;;5098148;28;20047;-72
2021/12/18 08:59:19;;;;;;;4.45;2.25;;;8.60;99.90;;;;;;5150455;27;20050;-72
2021/12/18 09:01:46;;;;;;;6.00;2.03;;;8.60;99.90;;;;;;5130664;27;20123;-73
2021/12/18 09:04:13;;;;;;;10.48;2.85;;;8.70;99.90;;;;;;5135048;27;20080;-71
2021/12/18 09:06:39;;;;;;;15.20;3.45;;;8.70;99.90;;;;;;5137080;27;20107;-72
2021/12/18 09:09:07;;;;;;;7.72;2.45;;;8.70;99.90;;;;;;5121261;27;20054;-80
2021/12/18 09:11:35;;;;;;;7.75;2.00;;;8.70;99.90;;;;;;5128564;27;20506;-73
2021/12/18 09:14:02;;;;;;;7.13;2.50;;;8.70;99.90;;;;;;5126705;27;20051;-73
2021/12/18 09:16:30;;;;;;;6.53;2.15;;;8.80;99.90;;;;;;5124989;27;20486;-72
2021/12/18 09:18:57;;;;;;;16.75;2.72;;;8.80;99.90;;;;;;5129377;27;20486;-72
2021/12/18 09:21:24;;;;;;;8.10;2.42;;;8.80;99.90;;;;;;5124096;27;20088;-72
2021/12/18 09:23:51;;;;;;;7.68;2.97;;;8.80;99.90;;;;;;5131942;27;20046;-72
2021/12/18 09:26:18;;;;;;;11.57;3.78;;;8.80;99.90;;;;;;5132394;27;20046;-72
2021/12/18 09:28:46;;;;;;;8.38;2.65;;;8.80;99.90;;;;;;5132884;27;20208;-72
2021/12/18 09:31:13;;;;;;;7.63;3.20;;;8.90;99.90;;;;;;5128091;27;20447;-72
2021/12/18 09:33:40;;;;;;;16.08;3.28;;;8.80;99.90;;;;;;5118084;27;20053;-72
2021/12/18 09:36:07;;;;;;;6.60;2.78;;;8.80;99.90;;;;;;5125110;27;20422;-72
2021/12/18 09:38:34;;;;;;;7.93;3.10;;;8.80;99.90;;;;;;5117965;27;20046;-73
2021/12/18 09:41:02;;;;;;;12.70;3.20;;;8.90;99.90;;;;;;5123187;27;20120;-72
2021/12/18 09:43:29;;;;;;;7.07;3.40;;;8.90;99.90;;;;;;5133614;27;20439;-73
2021/12/18 09:46:04;;;;;;;13.82;3.10;;;8.90;99.90;;;;;;5146426;27;20122;-76
2021/12/18 09:48:30;;;;;;;8.82;3.47;;;8.90;99.90;;;;;;5122103;27;20100;-75
2021/12/18 09:50:59;;;;;;;9.20;3.60;;;9.00;99.90;;;;;;5130735;27;20051;-75
2021/12/18 09:53:27;;;;;;;5.63;2.50;;;9.00;99.90;;;;;;5127915;27;20049;-75
2021/12/18 09:55:53;;;;;;;5.22;2.40;;;9.00;99.90;;;;;;5118583;27;20135;-75
2021/12/18 09:58:20;;;;;;;7.55;2.67;;;9.00;99.90;;;;;;5120479;27;20066;-75
2021/12/18 10:00:47;;;;;;;17.17;2.45;;;9.00;99.90;;;;;;5121573;27;20104;-76
2021/12/18 10:03:16;;;;;;;9.45;2.88;;;9.00;99.90;;;;;;5132806;27;20075;-75
2021/12/18 10:05:42;;;;;;;5.30;2.40;;;9.10;99.90;;;;;;5144119;27;20106;-75
2021/12/18 10:08:16;;;;;;;11.75;3.22;;;9.10;99.90;;;;;;5121444;27;20066;-75
2021/12/18 10:11:03;;;;;;;8.95;3.08;;;9.00;99.90;;;;;;5126637;27;20051;-75
2021/12/18 10:13:34;;;;;;;8.57;3.30;;;9.00;99.90;;;;;;5122193;27;20456;-76
2021/12/18 10:16:08;;;;;;;;;;;9.00;99.90;;;;;;5128628;27;20054;-75
2021/12/18 10:18:36;;;;;;;7.68;3.50;;;9.00;99.90;;;;;;5120754;28;19942;-76
2021/12/18 10:21:09;;;;;;;7.70;3.70;;;9.00;99.90;;;;;;5128349;28;20108;-75
2021/12/18 10:23:37;;;;;;;8.68;3.40;;;9.10;99.90;;;;;;5120863;28;20051;-76
2021/12/18 10:26:04;;;;;;;5.70;3.28;;;9.10;99.90;;;;;;5129943;27;20510;-76
2021/12/18 10:28:44;;;;;;;11.98;4.13;;;9.10;99.90;;;;;;5125128;28;20058;-74
2021/12/18 10:31:11;;;;;;;7.75;3.50;;;9.10;99.90;;;;;;5116739;27;20473;-74
2021/12/18 10:33:39;;;;;;;6.80;3.70;;;9.10;99.90;;;;;;5129272;28;20047;-74
2021/12/18 10:36:15;;;;;;;9.43;3.35;;;9.10;99.90;;;;;;5125788;27;20066;-75
2021/12/18 10:38:46;;;;;;;6.10;3.03;;;9.10;99.90;;;;;;5128204;28;20049;-75
2021/12/18 10:41:26;;;;;;;13.02;4.10;;;9.10;99.90;;;;;;5121668;27;20134;-75
2021/12/18 10:43:58;;;;;;;9.20;3.42;;;9.70;99.90;;;;;;5127889;27;20051;-75
2021/12/18 10:46:25;;;;;;;9.80;3.03;;;9.10;99.90;;;;;;5123895;28;20081;-75
2021/12/18 10:48:59;;;;;;;8.63;3.67;;;9.10;99.90;;;;;;5134604;27;20046;-75
2021/12/18 10:51:29;;;;;;;9.90;3.85;;;8.90;99.90;;;;;;5145305;27;20058;-75
2021/12/18 10:54:01;;;;;;;8.95;3.42;;;9.30;99.90;;;;;;5123240;28;20062;-75
2021/12/18 10:56:39;;;;;;;7.43;3.33;;;9.30;99.90;;;;;;5117758;27;20483;-76
2021/12/18 10:59:20;;;;;;;10.18;3.47;;;9.30;99.90;;;;;;5126839;28;20112;-74
2021/12/18 11:01:51;;;;;;;9.00;3.38;;;9.30;99.90;;;;;;5114162;27;20521;-75
2021/12/18 11:04:25;;;;;;;6.57;3.08;;;9.30;99.90;;;;;;5140283;27;20104;-75
2021/12/18 11:06:54;;;;;;;8.05;3.13;;;9.20;99.90;;;;;;5136299;27;20070;-77
2021/12/18 11:09:28;;;;;;;9.93;3.80;;;9.30;99.90;;;;;;5126672;27;20057;-78
2021/12/18 11:14:42;;;;;;;7.28;3.05;;;9.30;99.90;;;;;;5133570;27;20057;-77
2021/12/18 11:17:11;;;;;;;9.38;3.00;;;9.30;99.90;;;;;;5125400;27;20693;-77
2021/12/18 11:19:41;;;;;;;12.65;3.00;;;9.30;99.90;;;;;;5141313;27;20050;-78
2021/12/18 11:22:09;;;;;;;7.65;2.70;;;9.30;99.90;;;;;;5139237;27;20495;-77
2021/12/18 11:24:40;;;;;;;5.82;2.50;;;9.40;99.90;;;;;;5128353;27;20123;-77
2021/12/18 11:27:09;;;;;;;6.15;2.33;;;9.40;99.90;;;;;;5149032;27;20146;-78
2021/12/18 11:29:44;;;;;;;5.32;2.85;;;9.50;99.90;;;;;;5134810;27;20047;-78
2021/12/18 11:32:14;;;;;;;7.55;2.53;;;9.50;99.90;;;;;;5122704;27;20443;-77
2021/12/18 11:34:43;;;;;;;8.45;2.97;;;9.70;99.90;;;;;;5123429;27;20051;-77
2021/12/18 11:37:12;;;;;;;9.10;3.20;;;9.60;99.90;;;;;;5142298;27;20426;-77
2021/12/18 11:39:40;;;;;;;10.65;2.60;;;9.70;99.90;;;;;;5124427;27;20047;-77
2021/12/18 11:42:08;;;;;;;6.38;2.72;;;9.70;99.90;;;;;;5133205;27;20086;-77
2021/12/18 11:44:37;;;;;;;9.52;2.90;;;9.70;99.90;;;;;;5118626;27;20047;-77
2021/12/18 11:47:35;;;;;;;7.18;2.58;;;9.70;99.90;;;;;;5128597;27;20043;-77
2021/12/18 11:50:21;;;;;;;8.55;2.30;;;9.80;99.90;;;;;;5044279;28;20381;-77
2021/12/18 11:52:57;;;;;;;6.82;2.97;;;9.80;99.90;;;;;;5116223;27;20051;-76
2021/12/18 11:55:26;;;;;;;10.02;2.83;;;9.70;99.90;;;;;;5137181;27;20103;-76
2021/12/18 11:57:54;;;;;;;7.38;3.40;;;9.70;99.90;;;;;;5122650;27;20059;-76
2021/12/18 12:00:39;;;;;;;10.27;2.83;;;9.70;99.90;;;;;;5126213;27;20513;-76
2021/12/18 12:03:09;;;;;;;9.85;2.65;;;9.70;99.90;;;;;;5124629;27;20047;-77
2021/12/18 12:05:42;;;;;;;8.07;2.60;;;9.70;99.90;;;;;;5127149;27;20498;-76
2021/12/18 12:08:39;;;;;;;8.68;3.53;;;9.80;99.90;;;;;;5124531;27;20780;-80
2021/12/18 12:11:16;;;;;;;9.07;3.08;;;9.80;99.90;;;;;;5129438;27;20417;-76
2021/12/18 12:14:19;;;;;;;7.20;2.67;;;9.80;99.90;;;;;;5126058;27;20054;-75
2021/12/18 12:17:06;;;;;;;7.20;2.70;;;9.80;99.90;;;;;;5128176;27;20143;-77
2021/12/18 12:19:57;;;;;;;8.90;2.92;;;9.80;99.90;;;;;;5130390;27;20058;-69
2021/12/18 12:23:01;;;;;;;5.00;2.50;;;9.80;99.90;;;;;;5143868;27;20478;-69
2021/12/18 12:25:45;;;;;;;10.95;3.03;;;9.80;99.90;;;;;;5133007;27;20099;-69
2021/12/18 12:28:14;;;;;;;11.05;2.97;;;9.70;99.90;;;;;;5149440;27;20050;-69
2021/12/18 12:30:44;;;;;;;9.82;2.90;;;9.70;99.90;;;;;;5117015;27;20115;-70
2021/12/18 12:33:20;;;;;;;11.10;3.05;;;9.70;99.90;;;;;;5130107;27;20051;-67
2021/12/18 12:36:03;;;;;;;10.50;3.70;;;9.70;99.90;;;;;;5116235;27;20070;-69
2021/12/18 12:38:35;;;;;;;8.65;3.00;;;9.70;99.90;;;;;;5133425;27;20066;-72
2021/12/18 12:41:35;;;;;;;15.95;3.65;;;9.70;99.90;;;;;;5125321;27;20054;-69
2021/12/18 12:44:13;;;;;;;10.57;3.45;;;9.70;99.90;;;;;;5121873;27;20043;-71
2021/12/18 12:46:40;;;;;;;9.68;3.10;;;9.70;99.90;;;;;;5133196;27;20395;-70
2021/12/18 12:49:10;;;;;;;8.60;3.13;;;9.60;99.90;;;;;;5123586;27;20079;-71
2021/12/18 12:52:05;;;;;;;10.45;3.38;;;9.60;99.90;;;;;;5127796;27;20114;-68
2021/12/18 12:54:47;;;;;;;9.30;3.33;;;9.60;99.90;;;;;;5108021;27;20095;-68
2021/12/18 12:57:56;;;;;;;12.48;3.60;;;9.60;99.90;;;;;;5117083;27;20095;-68
2021/12/18 13:00:37;;;;;;;6.53;3.08;;;9.60;99.90;;;;;;5100441;27;20452;-68
2021/12/18 13:03:16;;;;;;;10.60;2.40;;;9.60;99.90;;;;;;5124574;27;20051;-69
2021/12/18 13:06:08;;;;;;;14.60;3.60;;;9.60;99.90;;;;;;5159514;27;20042;-68
2021/12/18 13:08:37;;;;;;;10.13;3.00;;;9.60;99.90;;;;;;5125143;27;20042;-68
2021/12/18 13:11:05;;;;;;;11.82;2.90;;;9.60;99.90;;;;;;5125330;27;20055;-68
2021/12/18 13:13:34;;;;;;;8.20;3.20;;;9.50;99.90;;;;;;5125812;27;20491;-69
2021/12/18 13:16:09;;;;;;;9.70;2.83;;;9.50;99.90;;;;;;5125960;27;20047;-68
2021/12/18 13:18:39;;;;;;;8.30;2.50;;;9.50;99.90;;;;;;5135012;27;20082;-68
2021/12/18 13:21:08;;;;;;;9.80;2.92;;;9.50;99.90;;;;;;5125730;27;20051;-68
2021/12/18 13:23:52;;;;;;;7.38;2.22;;;9.50;99.90;;;;;;5129166;27;20507;-68
2021/12/18 13:26:23;;;;;;;6.28;2.20;;;9.40;99.90;;;;;;5131677;27;20054;-68
2021/12/18 13:28:56;;;;;;;5.78;2.15;;;9.40;99.90;;;;;;5132933;27;20486;-68
2021/12/18 13:31:27;;;;;;;5.57;2.03;;;9.40;99.90;;;;;;5118070;27;20047;-69
2021/12/18 13:34:00;;;;;;;7.30;2.42;;;9.40;99.90;;;;;;5125699;27;20043;-69
2021/12/18 13:36:47;;;;;;;7.25;2.65;;;9.40;99.90;;;;;;5123733;27;20087;-69
2021/12/18 13:39:15;;;;;;;6.85;2.65;;;9.40;99.90;;;;;;5122584;27;20119;-69